sensor_id;sensor_type;location;lat;lon;timestamp;noise_LAeq;noise_LA_min;noise_LA_max;noise_LA01;noise_LA95
53135;Laerm;40912;51.552;9.874;2023-04-03T00:10:52;48.46;47.26;49.49;;
53135;Laerm;40912;51.552;9.874;2023-04-03T00:13:12;48.46;47.46;49.55;;
53135;Laerm;40912;51.552;9.874;2023-04-03T00:15:33;48.47;47.24;49.59;;
53135;Laerm;40912;51.552;9.874;2023-04-03T00:17:53;48.46;47.42;49.46;;
53135;Laerm;40912;51.552;9.874;2023-04-03T00:20:14;48.45;47.28;51.36;;
53135;Laerm;40912;51.552;9.874;2023-04-03T00:22:34;48.46;47.04;49.55;;
53135;Laerm;40912;51.552;9.874;2023-04-03T00:24:55;48.47;47.28;50.60;;
53135;Laerm;40912;51.552;9.874;2023-04-03T00:27:15;48.46;47.46;51.89;;
53135;Laerm;40912;51.552;9.874;2023-04-03T00:31:55;48.48;47.30;51.49;;
53135;Laerm;40912;51.552;9.874;2023-04-03T00:34:16;48.47;47.28;51.72;;
53135;Laerm;40912;51.552;9.874;2023-04-03T00:36:36;48.47;47.42;49.41;;
53135;Laerm;40912;51.552;9.874;2023-04-03T00:38:56;48.47;47.39;49.69;;
53135;Laerm;40912;51.552;9.874;2023-04-03T00:41:16;48.48;47.50;51.21;;
53135;Laerm;40912;51.552;9.874;2023-04-03T00:45:57;48.48;47.40;49.57;;
53135;Laerm;40912;51.552;9.874;2023-04-03T00:51:09;48.49;47.44;51.79;;
53135;Laerm;40912;51.552;9.874;2023-04-03T00:53:32;48.48;47.38;49.43;;
53135;Laerm;40912;51.552;9.874;2023-04-03T00:58:13;48.49;47.39;49.63;;
53135;Laerm;40912;51.552;9.874;2023-04-03T01:00:36;48.49;47.36;49.58;;
53135;Laerm;40912;51.552;9.874;2023-04-03T01:02:58;48.51;47.48;49.45;;
53135;Laerm;40912;51.552;9.874;2023-04-03T01:05:19;48.49;47.52;49.59;;
53135;Laerm;40912;51.552;9.874;2023-04-03T01:07:40;48.50;47.34;51.70;;
53135;Laerm;40912;51.552;9.874;2023-04-03T01:10:02;48.49;47.46;52.05;;
53135;Laerm;40912;51.552;9.874;2023-04-03T01:12:23;48.50;47.32;49.46;;
53135;Laerm;40912;51.552;9.874;2023-04-03T01:14:45;48.50;47.38;51.45;;
53135;Laerm;40912;51.552;9.874;2023-04-03T01:19:26;48.50;47.28;51.75;;
53135;Laerm;40912;51.552;9.874;2023-04-03T01:26:27;48.50;47.40;51.35;;
53135;Laerm;40912;51.552;9.874;2023-04-03T01:31:27;48.51;47.38;49.62;;
53135;Laerm;40912;51.552;9.874;2023-04-03T01:33:48;48.51;47.42;51.97;;
53135;Laerm;40912;51.552;9.874;2023-04-03T01:36:13;48.52;47.42;50.77;;
53135;Laerm;40912;51.552;9.874;2023-04-03T01:38:33;48.52;47.57;51.77;;
53135;Laerm;40912;51.552;9.874;2023-04-03T01:40:53;48.52;47.44;49.62;;
53135;Laerm;40912;51.552;9.874;2023-04-03T01:43:13;48.52;47.42;51.85;;
53135;Laerm;40912;51.552;9.874;2023-04-03T01:45:34;48.53;47.36;49.47;;
53135;Laerm;40912;51.552;9.874;2023-04-03T01:47:54;48.53;47.34;49.64;;
53135;Laerm;40912;51.552;9.874;2023-04-03T01:50:15;48.52;47.32;51.79;;
53135;Laerm;40912;51.552;9.874;2023-04-03T01:52:35;48.54;47.32;49.51;;
53135;Laerm;40912;51.552;9.874;2023-04-03T01:54:55;48.54;47.44;51.56;;
53135;Laerm;40912;51.552;9.874;2023-04-03T01:57:15;48.53;47.44;49.56;;
53135;Laerm;40912;51.552;9.874;2023-04-03T02:01:56;48.53;47.40;49.50;;
53135;Laerm;40912;51.552;9.874;2023-04-03T02:04:16;48.54;47.38;51.83;;
53135;Laerm;40912;51.552;9.874;2023-04-03T02:06:36;48.53;47.50;49.59;;
53135;Laerm;40912;51.552;9.874;2023-04-03T02:08:56;48.54;47.55;49.50;;
53135;Laerm;40912;51.552;9.874;2023-04-03T02:11:17;48.54;47.59;49.53;;
53135;Laerm;40912;51.552;9.874;2023-04-03T02:13:37;48.55;47.54;51.88;;
53135;Laerm;40912;51.552;9.874;2023-04-03T02:15:57;48.54;47.48;52.44;;
53135;Laerm;40912;51.552;9.874;2023-04-03T02:20:39;48.54;47.50;49.92;;
53135;Laerm;40912;51.552;9.874;2023-04-03T02:22:59;48.55;47.55;49.57;;
53135;Laerm;40912;51.552;9.874;2023-04-03T02:27:40;48.55;47.34;49.66;;
53135;Laerm;40912;51.552;9.874;2023-04-03T02:34:40;48.56;47.38;49.59;;
53135;Laerm;40912;51.552;9.874;2023-04-03T02:37:01;48.55;47.46;52.00;;
53135;Laerm;40912;51.552;9.874;2023-04-03T02:39:21;48.55;47.32;49.72;;
53135;Laerm;40912;51.552;9.874;2023-04-03T02:41:41;48.55;47.42;50.69;;
53135;Laerm;40912;51.552;9.874;2023-04-03T02:44:02;48.55;47.42;50.69;;
53135;Laerm;40912;51.552;9.874;2023-04-03T02:46:22;48.55;47.44;49.63;;
53135;Laerm;40912;51.552;9.874;2023-04-03T02:48:42;48.56;47.57;49.65;;
53135;Laerm;40912;51.552;9.874;2023-04-03T02:51:02;48.55;47.52;49.64;;
53135;Laerm;40912;51.552;9.874;2023-04-03T02:53:23;48.57;47.55;52.04;;
53135;Laerm;40912;51.552;9.874;2023-04-03T02:55:43;48.57;47.61;49.89;;
53135;Laerm;40912;51.552;9.874;2023-04-03T03:00:24;48.59;47.40;52.26;;
53135;Laerm;40912;51.552;9.874;2023-04-03T03:02:44;48.60;47.63;49.80;;
53135;Laerm;40912;51.552;9.874;2023-04-03T03:05:05;48.60;47.57;49.53;;
53135;Laerm;40912;51.552;9.874;2023-04-03T03:07:25;48.60;47.61;49.60;;
53135;Laerm;40912;51.552;9.874;2023-04-03T03:09:46;48.59;47.38;51.95;;
53135;Laerm;40912;51.552;9.874;2023-04-03T03:12:06;48.59;47.68;51.98;;
53135;Laerm;40912;51.552;9.874;2023-04-03T03:14:26;48.58;47.20;49.72;;
53135;Laerm;40912;51.552;9.874;2023-04-03T03:16:46;48.58;47.50;49.57;;
53135;Laerm;40912;51.552;9.874;2023-04-03T03:19:06;48.58;47.48;49.62;;
53135;Laerm;40912;51.552;9.874;2023-04-03T03:21:27;48.59;47.44;49.50;;
53135;Laerm;40912;51.552;9.874;2023-04-03T03:26:09;48.59;47.46;49.63;;
53135;Laerm;40912;51.552;9.874;2023-04-03T03:28:29;48.59;47.44;50.90;;
53135;Laerm;40912;51.552;9.874;2023-04-03T03:30:50;48.59;47.50;49.55;;
53135;Laerm;40912;51.552;9.874;2023-04-03T03:33:10;48.60;47.55;49.57;;
53135;Laerm;40912;51.552;9.874;2023-04-03T03:35:30;48.60;47.48;49.78;;
53135;Laerm;40912;51.552;9.874;2023-04-03T03:40:11;48.61;47.52;49.55;;
53135;Laerm;40912;51.552;9.874;2023-04-03T03:44:53;48.60;47.55;49.79;;
53135;Laerm;40912;51.552;9.874;2023-04-03T03:47:13;48.60;47.57;50.43;;
53135;Laerm;40912;51.552;9.874;2023-04-03T03:49:33;48.60;47.61;49.65;;
53135;Laerm;40912;51.552;9.874;2023-04-03T03:51:53;48.61;47.54;51.91;;
53135;Laerm;40912;51.552;9.874;2023-04-03T03:54:14;48.61;47.59;52.11;;
53135;Laerm;40912;51.552;9.874;2023-04-03T03:56:34;48.61;47.36;49.60;;
53135;Laerm;40912;51.552;9.874;2023-04-03T04:01:16;48.60;47.55;49.58;;
53135;Laerm;40912;51.552;9.874;2023-04-03T04:03:36;48.61;47.54;49.78;;
53135;Laerm;40912;51.552;9.874;2023-04-03T04:05:57;48.61;47.55;49.84;;
53135;Laerm;40912;51.552;9.874;2023-04-03T04:08:17;48.62;47.68;51.77;;
53135;Laerm;40912;51.552;9.874;2023-04-03T04:10:37;48.62;47.55;49.62;;
53135;Laerm;40912;51.552;9.874;2023-04-03T04:12:57;48.62;47.50;52.29;;
53135;Laerm;40912;51.552;9.874;2023-04-03T04:15:18;48.61;47.59;50.81;;
53135;Laerm;40912;51.552;9.874;2023-04-03T04:17:38;48.61;47.57;49.80;;
53135;Laerm;40912;51.552;9.874;2023-04-03T04:19:58;48.61;47.54;52.24;;
53135;Laerm;40912;51.552;9.874;2023-04-03T04:22:18;48.62;47.46;52.17;;
53135;Laerm;40912;51.552;9.874;2023-04-03T04:24:39;48.63;47.59;49.60;;
53135;Laerm;40912;51.552;9.874;2023-04-03T04:26:59;48.62;47.52;51.26;;
53135;Laerm;40912;51.552;9.874;2023-04-03T04:29:19;48.62;47.50;49.87;;
53135;Laerm;40912;51.552;9.874;2023-04-03T04:31:39;48.62;47.55;50.57;;
53135;Laerm;40912;51.552;9.874;2023-04-03T04:36:20;48.64;47.42;50.61;;
53135;Laerm;40912;51.552;9.874;2023-04-03T04:38:40;48.64;47.42;50.61;;
53135;Laerm;40912;51.552;9.874;2023-04-03T04:43:20;48.64;47.55;49.63;;
53135;Laerm;40912;51.552;9.874;2023-04-03T04:45:41;48.65;47.40;49.71;;
53135;Laerm;40912;51.552;9.874;2023-04-03T04:48:01;48.65;47.52;51.68;;
53135;Laerm;40912;51.552;9.874;2023-04-03T04:50:21;48.64;47.68;49.67;;
53135;Laerm;40912;51.552;9.874;2023-04-03T04:52:41;48.63;47.61;51.80;;
53135;Laerm;40912;51.552;9.874;2023-04-03T04:55:02;48.64;47.57;49.74;;
53135;Laerm;40912;51.552;9.874;2023-04-03T04:57:22;48.64;47.67;50.00;;
53135;Laerm;40912;51.552;9.874;2023-04-03T04:59:42;48.65;47.46;50.62;;
53135;Laerm;40912;51.552;9.874;2023-04-03T05:02:02;48.64;47.40;51.74;;
53135;Laerm;40912;51.552;9.874;2023-04-03T05:04:23;48.65;47.38;52.11;;
53135;Laerm;40912;51.552;9.874;2023-04-03T05:06:43;48.65;47.55;49.78;;
53135;Laerm;40912;51.552;9.874;2023-04-03T05:09:03;48.64;47.63;49.65;;
53135;Laerm;40912;51.552;9.874;2023-04-03T05:11:23;48.65;47.65;49.58;;
53135;Laerm;40912;51.552;9.874;2023-04-03T05:13:44;48.65;47.32;49.71;;
53135;Laerm;40912;51.552;9.874;2023-04-03T05:16:04;48.65;47.50;49.87;;
53135;Laerm;40912;51.552;9.874;2023-04-03T05:18:24;48.64;47.52;51.72;;
53135;Laerm;40912;51.552;9.874;2023-04-03T05:20:45;48.64;47.48;49.57;;
53135;Laerm;40912;51.552;9.874;2023-04-03T05:23:08;48.65;47.50;49.62;;
53135;Laerm;40912;51.552;9.874;2023-04-03T05:25:29;48.64;47.65;51.84;;
53135;Laerm;40912;51.552;9.874;2023-04-03T05:27:49;48.64;47.61;49.59;;
53135;Laerm;40912;51.552;9.874;2023-04-03T05:30:10;48.64;47.67;51.72;;
53135;Laerm;40912;51.552;9.874;2023-04-03T05:37:10;48.63;47.46;51.79;;
53135;Laerm;40912;51.552;9.874;2023-04-03T05:39:31;48.62;47.48;51.73;;
53135;Laerm;40912;51.552;9.874;2023-04-03T05:41:51;48.63;47.63;49.63;;
53135;Laerm;40912;51.552;9.874;2023-04-03T05:44:12;48.62;47.59;49.60;;
53135;Laerm;40912;51.552;9.874;2023-04-03T05:46:32;48.61;47.55;51.89;;
53135;Laerm;40912;51.552;9.874;2023-04-03T05:48:53;48.62;47.50;50.93;;
53135;Laerm;40912;51.552;9.874;2023-04-03T05:51:14;48.60;47.54;52.15;;
53135;Laerm;40912;51.552;9.874;2023-04-03T05:55:55;48.59;47.30;49.57;;
53135;Laerm;40912;51.552;9.874;2023-04-03T05:58:15;48.59;47.52;49.58;;
53135;Laerm;40912;51.552;9.874;2023-04-03T06:00:35;48.59;47.34;51.01;;
53135;Laerm;40912;51.552;9.874;2023-04-03T06:02:56;48.59;47.40;51.91;;
53135;Laerm;40912;51.552;9.874;2023-04-03T06:05:16;48.58;47.44;52.38;;
53135;Laerm;40912;51.552;9.874;2023-04-03T06:07:37;48.56;47.54;49.56;;
53135;Laerm;40912;51.552;9.874;2023-04-03T06:09:57;48.56;47.34;51.82;;
53135;Laerm;40912;51.552;9.874;2023-04-03T06:14:37;48.55;47.50;49.50;;
53135;Laerm;40912;51.552;9.874;2023-04-03T06:21:39;48.55;47.50;49.71;;
53135;Laerm;40912;51.552;9.874;2023-04-03T06:24:00;48.54;47.57;49.64;;
53135;Laerm;40912;51.552;9.874;2023-04-03T06:26:20;48.52;47.42;49.58;;
53135;Laerm;40912;51.552;9.874;2023-04-03T06:28:40;48.51;47.32;51.77;;
53135;Laerm;40912;51.552;9.874;2023-04-03T06:35:41;48.49;47.48;49.60;;
53135;Laerm;40912;51.552;9.874;2023-04-03T06:38:01;48.47;47.54;49.62;;
53135;Laerm;40912;51.552;9.874;2023-04-03T06:40:24;48.46;47.36;51.64;;
53135;Laerm;40912;51.552;9.874;2023-04-03T06:42:45;48.46;47.24;49.39;;
53135;Laerm;40912;51.552;9.874;2023-04-03T06:45:06;48.44;47.42;49.53;;
53135;Laerm;40912;51.552;9.874;2023-04-03T06:47:27;48.44;47.46;49.40;;
53135;Laerm;40912;51.552;9.874;2023-04-03T06:49:48;48.43;47.44;49.46;;
53135;Laerm;40912;51.552;9.874;2023-04-03T06:52:08;48.44;47.22;51.44;;
53135;Laerm;40912;51.552;9.874;2023-04-03T06:54:28;48.42;47.14;49.49;;
53135;Laerm;40912;51.552;9.874;2023-04-03T06:56:48;48.42;47.14;49.49;;
53135;Laerm;40912;51.552;9.874;2023-04-03T07:01:29;48.41;47.34;49.45;;
53135;Laerm;40912;51.552;9.874;2023-04-03T07:03:50;48.41;47.32;49.46;;
53135;Laerm;40912;51.552;9.874;2023-04-03T07:06:11;48.41;47.30;51.74;;
53135;Laerm;40912;51.552;9.874;2023-04-03T07:08:31;48.40;47.34;51.78;;
53135;Laerm;40912;51.552;9.874;2023-04-03T07:13:11;48.40;47.26;50.11;;
53135;Laerm;40912;51.552;9.874;2023-04-03T07:17:53;48.40;47.36;51.70;;
53135;Laerm;40912;51.552;9.874;2023-04-03T07:20:13;48.39;47.30;51.96;;
53135;Laerm;40912;51.552;9.874;2023-04-03T07:22:35;48.40;47.04;49.51;;
53135;Laerm;40912;51.552;9.874;2023-04-03T07:24:55;48.41;47.34;51.30;;
53135;Laerm;40912;51.552;9.874;2023-04-03T07:27:15;48.40;47.24;51.98;;
53135;Laerm;40912;51.552;9.874;2023-04-03T07:29:35;48.39;47.26;51.28;;
53135;Laerm;40912;51.552;9.874;2023-04-03T07:31:56;48.40;47.38;51.95;;
53135;Laerm;40912;51.552;9.874;2023-04-03T07:34:16;48.38;47.20;51.80;;
53135;Laerm;40912;51.552;9.874;2023-04-03T07:36:36;48.38;47.34;51.30;;
53135;Laerm;40912;51.552;9.874;2023-04-03T07:38:57;48.38;47.34;51.95;;
53135;Laerm;40912;51.552;9.874;2023-04-03T07:41:18;48.37;47.24;51.76;;
53135;Laerm;40912;51.552;9.874;2023-04-03T07:43:39;48.38;47.30;51.57;;
53135;Laerm;40912;51.552;9.874;2023-04-03T07:46:00;48.37;47.28;51.59;;
53135;Laerm;40912;51.552;9.874;2023-04-03T07:48:21;48.37;47.20;50.92;;
53135;Laerm;40912;51.552;9.874;2023-04-03T07:50:42;48.36;47.20;51.74;;
53135;Laerm;40912;51.552;9.874;2023-04-03T07:53:03;48.35;47.32;49.45;;
53135;Laerm;40912;51.552;9.874;2023-04-03T07:55:23;48.34;47.20;51.90;;
53135;Laerm;40912;51.552;9.874;2023-04-03T07:57:43;48.36;47.30;49.47;;
53135;Laerm;40912;51.552;9.874;2023-04-03T08:00:04;48.35;47.40;51.62;;
53135;Laerm;40912;51.552;9.874;2023-04-03T08:02:26;48.34;47.28;51.50;;
53135;Laerm;40912;51.552;9.874;2023-04-03T08:04:46;48.33;47.30;49.38;;
53135;Laerm;40912;51.552;9.874;2023-04-03T08:07:07;48.33;47.24;50.12;;
53135;Laerm;40912;51.552;9.874;2023-04-03T08:09:27;48.35;47.22;51.91;;
53135;Laerm;40912;51.552;9.874;2023-04-03T08:11:47;48.35;47.16;51.75;;
53135;Laerm;40912;51.552;9.874;2023-04-03T08:14:07;48.34;47.32;51.62;;
53135;Laerm;40912;51.552;9.874;2023-04-03T08:16:27;48.33;47.37;49.51;;
53135;Laerm;40912;51.552;9.874;2023-04-03T08:18:48;48.34;47.16;51.34;;
53135;Laerm;40912;51.552;9.874;2023-04-03T08:21:09;48.34;47.20;49.34;;
53135;Laerm;40912;51.552;9.874;2023-04-03T08:23:29;48.30;47.26;49.28;;
53135;Laerm;40912;51.552;9.874;2023-04-03T08:25:50;48.30;47.02;51.71;;
53135;Laerm;40912;51.552;9.874;2023-04-03T08:30:31;48.00;48.00;48.00;;
53135;Laerm;40912;51.552;9.874;2023-04-03T08:35:11;48.34;47.12;50.71;;
53135;Laerm;40912;51.552;9.874;2023-04-03T08:37:34;48.34;47.26;50.93;;
53135;Laerm;40912;51.552;9.874;2023-04-03T08:39:54;48.34;47.22;52.38;;
53135;Laerm;40912;51.552;9.874;2023-04-03T08:45:15;48.35;47.40;51.96;;
53135;Laerm;40912;51.552;9.874;2023-04-03T08:48:00;48.36;47.24;51.60;;
53135;Laerm;40912;51.552;9.874;2023-04-03T08:50:17;48.36;47.22;49.55;;
53135;Laerm;40912;51.552;9.874;2023-04-03T08:52:40;48.37;47.26;51.80;;
53135;Laerm;40912;51.552;9.874;2023-04-03T08:55:03;48.36;47.32;51.52;;
53135;Laerm;40912;51.552;9.874;2023-04-03T08:57:31;48.33;47.26;51.68;;
53135;Laerm;40912;51.552;9.874;2023-04-03T08:59:53;48.33;47.22;49.71;;
53135;Laerm;40912;51.552;9.874;2023-04-03T09:02:21;48.33;47.26;50.30;;
53135;Laerm;40912;51.552;9.874;2023-04-03T09:04:43;48.33;47.26;49.33;;
53135;Laerm;40912;51.552;9.874;2023-04-03T09:09:43;48.37;47.18;49.36;;
53135;Laerm;40912;51.552;9.874;2023-04-03T09:12:06;48.34;47.22;51.33;;
53135;Laerm;40912;51.552;9.874;2023-04-03T09:14:35;48.33;47.30;49.34;;
53135;Laerm;40912;51.552;9.874;2023-04-03T09:17:00;48.33;47.26;49.38;;
53135;Laerm;40912;51.552;9.874;2023-04-03T09:22:03;48.33;47.10;49.33;;
53135;Laerm;40912;51.552;9.874;2023-04-03T09:24:28;48.34;47.22;49.32;;
53135;Laerm;40912;51.552;9.874;2023-04-03T09:26:54;48.36;47.30;49.64;;
53135;Laerm;40912;51.552;9.874;2023-04-03T09:29:20;48.34;47.00;49.53;;
53135;Laerm;40912;51.552;9.874;2023-04-03T09:31:42;48.36;47.24;51.17;;
53135;Laerm;40912;51.552;9.874;2023-04-03T09:34:05;48.38;47.24;51.59;;
53135;Laerm;40912;51.552;9.874;2023-04-03T09:36:37;48.37;47.20;49.52;;
53135;Laerm;40912;51.552;9.874;2023-04-03T09:39:09;48.37;47.20;49.49;;
53135;Laerm;40912;51.552;9.874;2023-04-03T09:41:30;48.34;47.20;50.74;;
53135;Laerm;40912;51.552;9.874;2023-04-03T09:43:53;48.35;47.06;51.56;;
53135;Laerm;40912;51.552;9.874;2023-04-03T09:46:18;48.33;47.18;51.52;;
53135;Laerm;40912;51.552;9.874;2023-04-03T09:48:50;48.31;47.14;51.80;;
53135;Laerm;40912;51.552;9.874;2023-04-03T09:51:11;48.29;47.16;51.91;;
53135;Laerm;40912;51.552;9.874;2023-04-03T09:53:36;48.29;47.12;51.38;;
53135;Laerm;40912;51.552;9.874;2023-04-03T09:55:57;48.27;47.24;50.94;;
53135;Laerm;40912;51.552;9.874;2023-04-03T09:58:36;48.30;47.22;50.52;;
53135;Laerm;40912;51.552;9.874;2023-04-03T10:00:58;48.27;47.14;51.35;;
53135;Laerm;40912;51.552;9.874;2023-04-03T10:03:24;48.29;47.10;51.99;;
53135;Laerm;40912;51.552;9.874;2023-04-03T10:05:45;48.29;47.26;51.39;;
53135;Laerm;40912;51.552;9.874;2023-04-03T10:08:09;48.30;47.24;51.64;;
53135;Laerm;40912;51.552;9.874;2023-04-03T10:10:30;48.29;47.20;49.33;;
53135;Laerm;40912;51.552;9.874;2023-04-03T10:13:03;48.32;47.38;51.18;;
53135;Laerm;40912;51.552;9.874;2023-04-03T10:15:33;48.32;47.18;51.70;;
53135;Laerm;40912;51.552;9.874;2023-04-03T10:18:02;48.31;47.16;49.28;;
53135;Laerm;40912;51.552;9.874;2023-04-03T10:20:27;48.33;47.22;49.29;;
53135;Laerm;40912;51.552;9.874;2023-04-03T10:22:56;48.31;47.20;51.65;;
53135;Laerm;40912;51.552;9.874;2023-04-03T10:25:26;48.34;47.12;51.64;;
53135;Laerm;40912;51.552;9.874;2023-04-03T10:27:55;48.33;47.24;50.73;;
53135;Laerm;40912;51.552;9.874;2023-04-03T10:30:22;48.32;47.28;49.43;;
53135;Laerm;40912;51.552;9.874;2023-04-03T10:35:28;48.35;47.06;51.90;;
53135;Laerm;40912;51.552;9.874;2023-04-03T10:38:04;48.32;47.28;49.45;;
53135;Laerm;40912;51.552;9.874;2023-04-03T10:43:00;48.33;47.16;49.34;;
53135;Laerm;40912;51.552;9.874;2023-04-03T10:52:24;48.31;47.18;49.25;;
53135;Laerm;40912;51.552;9.874;2023-04-03T10:54:57;48.33;47.22;50.47;;
53135;Laerm;40912;51.552;9.874;2023-04-03T10:57:21;48.31;47.30;49.27;;
53135;Laerm;40912;51.552;9.874;2023-04-03T10:59:44;48.29;47.16;49.34;;
53135;Laerm;40912;51.552;9.874;2023-04-03T11:04:27;48.29;47.06;51.45;;
53135;Laerm;40912;51.552;9.874;2023-04-03T11:06:53;48.28;47.14;51.60;;
53135;Laerm;40912;51.552;9.874;2023-04-03T11:09:28;48.27;47.26;49.29;;
53135;Laerm;40912;51.552;9.874;2023-04-03T11:16:43;48.29;47.14;49.40;;
53135;Laerm;40912;51.552;9.874;2023-04-03T11:23:46;48.25;47.12;51.75;;
53135;Laerm;40912;51.552;9.874;2023-04-03T11:26:10;48.23;47.24;51.50;;
53135;Laerm;40912;51.552;9.874;2023-04-03T11:28:30;48.21;47.06;49.47;;
53135;Laerm;40912;51.552;9.874;2023-04-03T11:30:59;48.22;47.14;49.18;;
53135;Laerm;40912;51.552;9.874;2023-04-03T11:38:06;48.24;47.04;50.15;;
53135;Laerm;40912;51.552;9.874;2023-04-03T11:40:33;48.27;47.02;51.59;;
53135;Laerm;40912;51.552;9.874;2023-04-03T11:47:48;48.29;47.18;50.66;;
53135;Laerm;40912;51.552;9.874;2023-04-03T11:50:08;48.31;46.97;49.51;;
53135;Laerm;40912;51.552;9.874;2023-04-03T11:55:55;48.27;47.16;49.33;;
53135;Laerm;40912;51.552;9.874;2023-04-03T12:02:58;48.22;47.12;51.67;;
53135;Laerm;40912;51.552;9.874;2023-04-03T12:05:26;48.23;47.10;49.41;;
53135;Laerm;40912;51.552;9.874;2023-04-03T12:08:15;48.24;47.24;49.30;;
53135;Laerm;40912;51.552;9.874;2023-04-03T12:15:22;48.23;47.18;49.47;;
53135;Laerm;40912;51.552;9.874;2023-04-03T12:17:42;48.24;47.24;49.38;;
53135;Laerm;40912;51.552;9.874;2023-04-03T12:20:14;48.24;46.87;49.24;;
53135;Laerm;40912;51.552;9.874;2023-04-03T12:23:06;48.24;47.16;49.21;;
53135;Laerm;40912;51.552;9.874;2023-04-03T12:28:05;48.22;47.24;52.13;;
53135;Laerm;40912;51.552;9.874;2023-04-03T12:30:26;48.22;47.10;51.29;;
53135;Laerm;40912;51.552;9.874;2023-04-03T12:41:06;48.24;47.16;51.47;;
53135;Laerm;40912;51.552;9.874;2023-04-03T12:45:27;48.22;47.04;49.62;;
53135;Laerm;40912;51.552;9.874;2023-04-03T12:53:01;48.22;46.95;51.54;;
53135;Laerm;40912;51.552;9.874;2023-04-03T12:55:24;48.22;47.18;49.30;;
53135;Laerm;40912;51.552;9.874;2023-04-03T12:57:44;48.21;47.12;49.15;;
53135;Laerm;40912;51.552;9.874;2023-04-03T13:00:18;48.22;46.91;51.80;;
53135;Laerm;40912;51.552;9.874;2023-04-03T13:02:38;48.20;47.18;49.20;;
53135;Laerm;40912;51.552;9.874;2023-04-03T13:05:07;48.23;47.18;52.00;;
53135;Laerm;40912;51.552;9.874;2023-04-03T13:07:30;48.22;47.20;49.47;;
53135;Laerm;40912;51.552;9.874;2023-04-03T13:09:56;48.22;47.18;51.12;;
53135;Laerm;40912;51.552;9.874;2023-04-03T13:12:17;48.19;47.24;51.62;;
53135;Laerm;40912;51.552;9.874;2023-04-03T13:14:37;48.16;46.95;49.19;;
53135;Laerm;40912;51.552;9.874;2023-04-03T13:16:59;48.20;47.12;49.24;;
53135;Laerm;40912;51.552;9.874;2023-04-03T13:19:20;48.21;47.23;49.35;;
53135;Laerm;40912;51.552;9.874;2023-04-03T13:21:42;48.22;47.12;52.26;;
53135;Laerm;40912;51.552;9.874;2023-04-03T13:24:04;48.23;47.18;51.64;;
53135;Laerm;40912;51.552;9.874;2023-04-03T13:26:26;48.24;47.16;49.27;;
53135;Laerm;40912;51.552;9.874;2023-04-03T13:28:47;48.26;47.10;49.60;;
53135;Laerm;40912;51.552;9.874;2023-04-03T13:33:34;48.22;47.10;51.75;;
53135;Laerm;40912;51.552;9.874;2023-04-03T13:36:08;48.21;46.97;49.24;;
53135;Laerm;40912;51.552;9.874;2023-04-03T13:38:30;48.22;47.14;49.24;;
53135;Laerm;40912;51.552;9.874;2023-04-03T13:40:55;48.21;47.06;49.30;;
53135;Laerm;40912;51.552;9.874;2023-04-03T13:43:22;48.21;47.11;49.36;;
53135;Laerm;40912;51.552;9.874;2023-04-03T13:45:54;48.20;47.18;51.59;;
53135;Laerm;40912;51.552;9.874;2023-04-03T13:48:18;48.19;47.12;51.10;;
53135;Laerm;40912;51.552;9.874;2023-04-03T13:50:56;48.18;46.95;51.01;;
53135;Laerm;40912;51.552;9.874;2023-04-03T13:53:17;48.18;47.06;51.03;;
53135;Laerm;40912;51.552;9.874;2023-04-03T13:55:51;48.15;47.06;51.06;;
53135;Laerm;40912;51.552;9.874;2023-04-03T14:02:55;48.18;47.04;51.74;;
53135;Laerm;40912;51.552;9.874;2023-04-03T14:05:16;48.15;46.89;49.19;;
53135;Laerm;40912;51.552;9.874;2023-04-03T14:07:41;48.17;47.02;51.20;;
53135;Laerm;40912;51.552;9.874;2023-04-03T14:10:01;48.17;46.95;51.20;;
53135;Laerm;40912;51.552;9.874;2023-04-03T14:12:35;48.16;46.76;51.33;;
53135;Laerm;40912;51.552;9.874;2023-04-03T14:17:18;48.22;46.93;49.91;;
53135;Laerm;40912;51.552;9.874;2023-04-03T14:19:38;48.20;47.16;51.59;;
53135;Laerm;40912;51.552;9.874;2023-04-03T14:21:59;48.21;47.18;51.80;;
53135;Laerm;40912;51.552;9.874;2023-04-03T14:26:41;48.21;47.20;51.31;;
53135;Laerm;40912;51.552;9.874;2023-04-03T14:29:01;48.21;47.24;49.27;;
53135;Laerm;40912;51.552;9.874;2023-04-03T14:31:23;48.20;47.18;51.14;;
53135;Laerm;40912;51.552;9.874;2023-04-03T14:33:43;48.20;47.19;49.40;;
53135;Laerm;40912;51.552;9.874;2023-04-03T14:36:13;48.20;47.08;49.21;;
53135;Laerm;40912;51.552;9.874;2023-04-03T14:45:36;48.16;47.08;49.15;;
53135;Laerm;40912;51.552;9.874;2023-04-03T14:47:56;48.14;47.10;51.44;;
53135;Laerm;40912;51.552;9.874;2023-04-03T14:52:37;48.17;47.04;51.06;;
53135;Laerm;40912;51.552;9.874;2023-04-03T14:57:18;48.17;47.14;51.38;;
53135;Laerm;40912;51.552;9.874;2023-04-03T15:01:58;48.20;46.93;51.61;;
